createdAt,value
2019-06-08T00:01:55.398Z,59.60
2019-06-08T00:04:24.354Z,59.72
2019-06-08T00:06:53.245Z,60.12
2019-06-08T00:09:22.608Z,59.75
2019-06-08T00:11:53.788Z,59.73
2019-06-08T00:14:23.415Z,60.01
2019-06-08T00:16:51.551Z,59.98
2019-06-08T00:19:21.636Z,60.00
2019-06-08T00:21:51.864Z,60.19
2019-06-08T00:24:21.852Z,60.37
2019-06-08T00:26:49.586Z,60.17
2019-06-08T00:29:18.859Z,59.70
2019-06-08T00:31:47.710Z,59.65
2019-06-08T00:34:17.065Z,59.85
2019-06-08T00:36:46.691Z,59.50
2019-06-08T00:39:16.732Z,59.45
2019-06-08T00:41:45.289Z,59.53
2019-06-08T00:44:15.177Z,59.41
2019-06-08T00:46:44.430Z,59.70
2019-06-08T00:49:13.384Z,59.30
2019-06-08T00:51:42.240Z,58.75
2019-06-08T00:54:13.025Z,59.35
2019-06-08T00:56:42.875Z,58.81
2019-06-08T00:59:11.723Z,59.27
2019-06-08T01:01:40.669Z,59.13
2019-06-08T01:04:11.366Z,59.18
2019-06-08T01:06:40.387Z,58.44
2019-06-08T01:09:09.247Z,58.60
2019-06-08T01:11:38.828Z,58.88
2019-06-08T01:14:07.668Z,59.08
2019-06-08T01:16:36.489Z,58.97
2019-06-08T01:19:05.378Z,58.79
2019-06-08T01:21:34.319Z,58.95
2019-06-08T01:24:03.205Z,58.64
2019-06-08T01:26:32.111Z,58.50
2019-06-08T01:29:01.267Z,58.36
2019-06-08T01:31:34.458Z,58.63
2019-06-08T01:34:03.663Z,58.69
2019-06-08T01:36:32.512Z,58.08
2019-06-08T01:39:01.587Z,58.22
2019-06-08T01:41:31.750Z,58.18
2019-06-08T01:43:59.722Z,58.28
2019-06-08T01:46:28.570Z,57.93
2019-06-08T01:48:57.881Z,58.15
2019-06-08T01:51:28.582Z,58.02
2019-06-08T01:53:56.739Z,58.47
2019-06-08T01:56:27.103Z,58.42
2019-06-08T01:58:56.315Z,58.07
2019-06-08T02:01:25.504Z,57.85
2019-06-08T02:03:53.999Z,57.49
2019-06-08T02:06:24.166Z,57.71
2019-06-08T02:08:52.410Z,57.81
2019-06-08T02:11:21.359Z,58.13
2019-06-08T02:13:50.993Z,57.66
2019-06-08T02:16:20.098Z,57.66
2019-06-08T02:18:51.062Z,57.68
2019-06-08T02:21:18.606Z,57.72
2019-06-08T02:23:48.677Z,57.86
2019-06-08T02:26:17.575Z,58.02
2019-06-08T02:28:46.515Z,58.01
2019-06-08T02:31:16.018Z,58.02
2019-06-08T02:33:48.816Z,58.26
2019-06-08T02:36:17.672Z,58.30
2019-06-08T02:38:46.709Z,58.64
2019-06-08T02:41:15.555Z,59.43
2019-06-08T02:43:44.553Z,59.27
2019-06-08T02:46:13.461Z,59.18
2019-06-08T02:49:02.447Z,59.01
2019-06-08T02:51:11.293Z,59.16
2019-06-08T02:53:41.547Z,58.74
2019-06-08T02:56:10.068Z,58.28
2019-06-08T02:58:40.747Z,58.02
2019-06-08T03:01:08.437Z,57.70
2019-06-08T03:03:38.351Z,58.16
2019-06-08T03:06:07.290Z,56.83
2019-06-08T03:08:39.116Z,57.26
2019-06-08T03:11:06.386Z,57.52
2019-06-08T03:13:36.116Z,57.14
2019-06-08T03:16:05.325Z,57.60
2019-06-08T03:18:35.676Z,57.73
2019-06-08T03:21:03.167Z,58.12
2019-06-08T03:23:34.242Z,57.66
2019-06-08T03:26:02.628Z,57.51
2019-06-08T03:28:32.645Z,57.62
2019-06-08T03:31:00.349Z,57.88
2019-06-08T03:33:30.028Z,58.24
2019-06-08T03:35:59.035Z,58.47
2019-06-08T03:38:27.841Z,58.58
2019-06-08T03:40:56.709Z,58.67
2019-06-08T03:43:26.851Z,59.42
2019-06-08T03:45:55.809Z,59.73
2019-06-08T03:48:24.978Z,59.70
2019-06-08T03:50:54.142Z,59.54
2019-06-08T03:53:23.089Z,59.29
2019-06-08T03:55:51.945Z,59.19
2019-06-08T03:58:22.982Z,58.98
2019-06-08T04:00:55.173Z,58.29
2019-06-08T04:03:24.140Z,58.53
2019-06-08T04:05:52.993Z,58.32
2019-06-08T04:08:21.925Z,58.39
2019-06-08T04:10:52.391Z,57.95
2019-06-08T04:13:21.311Z,58.36
2019-06-08T04:15:50.413Z,58.07
2019-06-08T04:18:19.107Z,58.50
2019-06-08T04:20:49.384Z,58.28
2019-06-08T04:23:17.582Z,58.00
2019-06-08T04:25:47.755Z,58.22
2019-06-08T04:28:15.584Z,58.29
2019-06-08T04:30:45.293Z,58.61
2019-06-08T04:33:13.402Z,57.93
2019-06-08T04:35:45.192Z,58.26
2019-06-08T04:38:12.371Z,58.79
2019-06-08T04:40:41.936Z,57.97
2019-06-08T04:43:10.253Z,58.71
2019-06-08T04:45:40.881Z,58.91
2019-06-08T04:48:09.680Z,59.42
2019-06-08T04:50:38.658Z,58.66
2019-06-08T04:53:06.204Z,58.86
2019-06-08T04:55:35.089Z,58.69
2019-06-08T04:58:03.994Z,58.66
2019-06-08T05:00:33.205Z,58.66
2019-06-08T05:03:02.592Z,58.86
2019-06-08T05:05:31.480Z,58.98
2019-06-08T05:08:00.350Z,58.92
2019-06-08T05:10:29.321Z,59.22
2019-06-08T05:12:58.251Z,59.35
2019-06-08T05:15:27.107Z,60.22
2019-06-08T05:17:56.517Z,59.56
2019-06-08T05:20:38.358Z,59.13
2019-06-08T05:22:54.537Z,59.13
2019-06-08T05:25:23.407Z,59.29
2019-06-08T05:27:52.345Z,59.22
2019-06-08T05:30:21.201Z,58.95
2019-06-08T05:32:51.582Z,59.18
2019-06-08T05:35:21.197Z,58.95
2019-06-08T05:37:50.122Z,59.28
2019-06-08T05:40:19.010Z,58.40
2019-06-08T05:42:49.991Z,58.87
2019-06-08T05:45:18.255Z,58.92
2019-06-08T05:47:47.961Z,59.01
2019-06-08T05:50:16.804Z,59.09
2019-06-08T05:52:46.375Z,59.16
2019-06-08T05:55:15.252Z,59.51
2019-06-08T05:57:44.275Z,59.66
2019-06-08T06:00:13.933Z,59.89
2019-06-08T06:02:42.920Z,59.31
2019-06-08T06:05:12.124Z,59.28
2019-06-08T06:07:42.581Z,59.11
2019-06-08T06:10:10.165Z,60.04
2019-06-08T06:12:39.132Z,59.82
2019-06-08T06:15:08.000Z,60.08
2019-06-08T06:17:38.794Z,60.02
2019-06-08T06:20:07.692Z,60.05
2019-06-08T06:22:36.571Z,60.25
2019-06-08T06:25:05.732Z,60.00
2019-06-08T06:27:34.692Z,60.53
2019-06-08T06:30:03.672Z,60.36
2019-06-08T06:32:32.479Z,60.67
2019-06-08T06:35:03.074Z,59.97
2019-06-08T06:37:32.138Z,60.17
2019-06-08T06:40:01.700Z,60.20
2019-06-08T06:42:30.587Z,60.87
2019-06-08T06:44:59.589Z,61.20
2019-06-08T06:47:28.465Z,61.95
2019-06-08T06:49:59.314Z,62.10
2019-06-08T06:52:28.480Z,62.35
2019-06-08T06:54:57.519Z,62.55
2019-06-08T06:57:26.782Z,62.84
2019-06-08T06:59:56.637Z,63.07
2019-06-08T07:02:25.571Z,63.44
2019-06-08T07:04:54.473Z,63.79
2019-06-08T07:07:26.753Z,63.04
2019-06-08T07:09:56.395Z,63.73
2019-06-08T07:12:25.430Z,64.58
2019-06-08T07:14:55.478Z,64.14
2019-06-08T07:17:23.343Z,64.48
2019-06-08T07:19:53.215Z,64.45
2019-06-08T07:22:22.317Z,64.25
2019-06-08T07:24:52.584Z,64.53
2019-06-08T07:27:20.407Z,64.18
2019-06-08T07:29:50.523Z,64.53
2019-06-08T07:32:18.942Z,64.49
2019-06-08T07:34:48.785Z,64.89
2019-06-08T07:37:17.598Z,64.42
2019-06-08T07:39:47.168Z,64.56
2019-06-08T07:42:18.391Z,64.60
2019-06-08T07:44:50.824Z,64.27
2019-06-08T07:47:19.318Z,64.44
2019-06-08T07:49:49.372Z,64.76
2019-06-08T07:52:19.174Z,64.83
2019-06-08T07:54:49.390Z,65.18
2019-06-08T07:57:17.520Z,65.19
2019-06-08T07:59:47.599Z,65.47
2019-06-08T08:02:15.564Z,65.86
2019-06-08T08:04:45.153Z,65.51
2019-06-08T08:07:14.735Z,65.37
2019-06-08T08:09:44.550Z,64.92
2019-06-08T08:12:15.323Z,64.76
2019-06-08T08:14:44.250Z,64.41
2019-06-08T08:17:13.256Z,64.39
2019-06-08T08:19:42.159Z,64.03
2019-06-08T08:22:22.111Z,63.85
2019-06-08T08:24:41.319Z,63.94
2019-06-08T08:27:10.164Z,63.66
2019-06-08T08:29:39.182Z,63.31
2019-06-08T08:32:09.957Z,63.21
2019-06-08T08:34:38.303Z,63.23
2019-06-08T08:37:09.516Z,62.36
2019-06-08T08:39:37.667Z,62.49
2019-06-08T08:42:05.613Z,62.64
2019-06-08T08:44:38.030Z,62.80
2019-06-08T08:47:07.443Z,62.66
2019-06-08T08:49:34.267Z,62.32
2019-06-08T08:52:03.929Z,61.84
2019-06-08T08:54:34.735Z,61.51
2019-06-08T08:57:05.201Z,61.51
2019-06-08T08:59:32.995Z,60.43
2019-06-08T09:02:03.070Z,60.04
2019-06-08T09:04:31.898Z,60.34
2019-06-08T09:07:05.213Z,59.24
2019-06-08T09:09:29.754Z,59.32
2019-06-08T09:12:02.282Z,58.54
2019-06-08T09:14:28.120Z,57.88
2019-06-08T09:16:59.815Z,57.89
2019-06-08T09:19:27.913Z,57.92
2019-06-08T09:21:56.015Z,57.02
2019-06-08T09:24:23.501Z,57.36
2019-06-08T09:26:53.894Z,57.55
2019-06-08T09:29:21.341Z,56.59
2019-06-08T09:31:50.204Z,56.87
2019-06-08T09:34:19.370Z,56.64
2019-06-08T09:36:48.975Z,56.37
2019-06-08T09:39:18.588Z,55.80
2019-06-08T09:41:47.947Z,54.95
2019-06-08T09:44:18.249Z,55.64
2019-06-08T09:46:48.055Z,55.62
2019-06-08T09:49:15.503Z,55.73
2019-06-08T09:51:44.452Z,55.65
2019-06-08T09:54:13.439Z,55.47
2019-06-08T09:56:42.371Z,55.73
2019-06-08T09:59:14.789Z,56.29
2019-06-08T10:01:40.058Z,56.42
2019-06-08T10:04:09.541Z,56.49
2019-06-08T10:06:40.420Z,55.94
2019-06-08T10:09:08.995Z,55.76
2019-06-08T10:11:38.041Z,55.62
2019-06-08T10:14:11.683Z,55.90
2019-06-08T10:16:38.019Z,55.92
2019-06-08T10:19:06.996Z,55.38
2019-06-08T10:21:33.852Z,55.51
2019-06-08T10:24:06.321Z,55.16
2019-06-08T10:26:33.967Z,55.50
2019-06-08T10:29:05.169Z,54.80
2019-06-08T10:31:39.108Z,54.94
2019-06-08T10:34:03.419Z,55.09
2019-06-08T10:36:30.129Z,55.01
2019-06-08T10:39:02.801Z,54.71
2019-06-08T10:41:28.565Z,54.62
2019-06-08T10:43:57.489Z,54.18
2019-06-08T10:46:26.451Z,54.40
2019-06-08T10:48:57.403Z,54.37
2019-06-08T10:51:25.927Z,53.38
2019-06-08T10:53:54.875Z,53.64
2019-06-08T10:56:23.856Z,53.24
2019-06-08T10:58:55.244Z,53.94
2019-06-08T11:01:24.148Z,53.47
2019-06-08T11:03:53.094Z,53.27
2019-06-08T11:06:22.046Z,53.50
2019-06-08T11:08:50.969Z,53.22
2019-06-08T11:11:20.550Z,53.19
2019-06-08T11:13:50.517Z,53.64
2019-06-08T11:16:18.399Z,54.47
2019-06-08T11:18:50.495Z,54.46
2019-06-08T11:21:18.705Z,54.54
2019-06-08T11:23:59.870Z,54.30
2019-06-08T11:26:22.629Z,53.92
2019-06-08T11:28:44.112Z,54.04
2019-06-08T11:31:15.918Z,52.83
2019-06-08T11:33:43.072Z,53.55
2019-06-08T11:36:14.905Z,53.18
2019-06-08T11:38:43.310Z,52.70
2019-06-08T11:41:13.689Z,51.83
2019-06-08T11:43:41.657Z,51.24
2019-06-08T11:46:10.720Z,50.73
2019-06-08T11:48:41.511Z,52.17
2019-06-08T11:51:10.697Z,53.56
2019-06-08T11:53:38.551Z,54.75
2019-06-08T11:56:09.466Z,56.12
2019-06-08T11:58:38.574Z,56.88
2019-06-08T12:01:11.670Z,57.85
2019-06-08T12:03:38.716Z,59.67
2019-06-08T12:06:08.574Z,60.58
2019-06-08T12:08:34.628Z,60.86
2019-06-08T12:11:09.735Z,59.23
2019-06-08T12:13:36.090Z,60.35
2019-06-08T12:16:14.255Z,60.78
2019-06-08T12:18:35.093Z,61.52
2019-06-08T12:21:05.655Z,62.86
2019-06-08T12:23:34.693Z,62.92
2019-06-08T12:26:04.032Z,63.38
2019-06-08T12:28:32.473Z,63.17
2019-06-08T12:31:01.483Z,63.57
2019-06-08T12:33:33.854Z,63.33
2019-06-08T12:36:02.775Z,63.45
2019-06-08T12:38:34.479Z,63.92
2019-06-08T12:41:00.669Z,63.14
2019-06-08T12:43:30.367Z,62.84
2019-06-08T12:45:59.567Z,61.04
2019-06-08T12:48:28.787Z,59.87
2019-06-08T12:50:57.530Z,59.41
2019-06-08T12:53:28.316Z,59.25
2019-06-08T12:55:57.718Z,58.36
2019-06-08T12:58:24.316Z,57.89
2019-06-08T13:00:54.134Z,55.40
2019-06-08T13:03:23.580Z,54.92
2019-06-08T13:05:53.344Z,53.32
2019-06-08T13:08:22.164Z,52.85
2019-06-08T13:10:51.039Z,52.83
2019-06-08T13:13:24.176Z,52.52
2019-06-08T13:15:48.821Z,51.50
2019-06-08T13:18:21.238Z,51.27
2019-06-08T13:20:51.765Z,51.82
2019-06-08T13:23:20.029Z,51.52
2019-06-08T13:25:48.157Z,51.61
2019-06-08T13:28:19.389Z,51.47
2019-06-08T13:30:47.706Z,51.63
2019-06-08T13:33:16.763Z,50.75
2019-06-08T13:35:48.032Z,49.35
2019-06-08T13:38:17.305Z,49.09
2019-06-08T13:40:48.429Z,48.67
2019-06-08T13:43:19.575Z,49.22
2019-06-08T13:45:48.542Z,48.72
2019-06-08T13:48:18.661Z,48.12
2019-06-08T13:50:46.622Z,46.85
2019-06-08T13:53:14.811Z,45.73
2019-06-08T13:55:53.322Z,46.04
2019-06-08T13:58:14.927Z,45.70
2019-06-08T14:00:43.327Z,44.15
2019-06-08T14:03:13.633Z,42.76
2019-06-08T14:05:41.926Z,43.22
2019-06-08T14:08:11.137Z,42.86
2019-06-08T14:10:39.998Z,43.35
2019-06-08T14:13:08.920Z,44.08
2019-06-08T14:15:38.127Z,43.54
2019-06-08T14:18:08.892Z,43.58
2019-06-08T14:20:38.255Z,43.48
2019-06-08T14:23:08.948Z,43.80
2019-06-08T14:25:47.927Z,43.71
2019-06-08T14:28:06.326Z,44.05
2019-06-08T14:30:37.553Z,43.22
2019-06-08T14:33:04.291Z,43.46
2019-06-08T14:35:33.312Z,42.40
2019-06-08T14:38:02.320Z,42.13
2019-06-08T14:40:33.080Z,40.82
2019-06-08T14:43:00.867Z,41.90
2019-06-08T14:45:31.018Z,41.26
2019-06-08T14:47:58.916Z,41.79
2019-06-08T14:50:30.711Z,42.41
2019-06-08T14:52:58.815Z,42.10
2019-06-08T14:55:29.703Z,42.06
2019-06-08T14:57:57.861Z,41.16
2019-06-08T15:00:25.695Z,40.84
2019-06-08T15:02:53.563Z,42.34
2019-06-08T15:05:25.266Z,42.13
2019-06-08T15:07:53.693Z,42.78
2019-06-08T15:10:24.003Z,43.24
2019-06-08T15:12:57.826Z,42.83
2019-06-08T15:15:25.896Z,42.75
2019-06-08T15:17:54.246Z,43.14
2019-06-08T15:20:24.027Z,43.69
2019-06-08T15:22:52.067Z,44.06
2019-06-08T15:25:20.911Z,44.10
2019-06-08T15:27:50.181Z,43.53
2019-06-08T15:30:19.150Z,43.86
2019-06-08T15:32:48.098Z,42.93
2019-06-08T15:35:18.140Z,43.03
2019-06-08T15:37:47.692Z,42.97
2019-06-08T15:40:14.615Z,43.17
2019-06-08T15:42:43.564Z,43.78
2019-06-08T15:45:12.524Z,42.98
2019-06-08T15:47:41.596Z,43.30
2019-06-08T15:50:10.701Z,42.74
2019-06-08T15:52:42.276Z,43.56
2019-06-08T15:55:12.280Z,43.09
2019-06-08T15:57:41.488Z,43.52
2019-06-08T16:00:10.356Z,43.89
2019-06-08T16:02:39.158Z,44.87
2019-06-08T16:05:07.931Z,45.08
2019-06-08T16:07:36.819Z,45.63
2019-06-08T16:10:06.208Z,45.62
2019-06-08T16:12:35.180Z,46.36
2019-06-08T16:15:05.366Z,45.71
2019-06-08T16:17:35.480Z,45.39
2019-06-08T16:20:04.611Z,46.41
2019-06-08T16:22:33.843Z,45.75
2019-06-08T16:25:03.189Z,46.95
2019-06-08T16:27:33.925Z,46.59
2019-06-08T16:30:09.012Z,46.91
2019-06-08T16:32:35.347Z,50.32
2019-06-08T16:35:03.183Z,53.70
2019-06-08T16:37:32.038Z,55.00
2019-06-08T16:40:01.498Z,55.63
2019-06-08T16:42:30.311Z,55.66
2019-06-08T16:44:59.821Z,55.51
2019-06-08T16:47:29.484Z,56.47
2019-06-08T16:49:58.385Z,57.50
2019-06-08T16:52:28.450Z,57.44
2019-06-08T16:54:56.238Z,57.01
2019-06-08T16:57:25.233Z,57.50
2019-06-08T16:59:54.221Z,56.77
2019-06-08T17:02:23.067Z,56.84
2019-06-08T17:04:52.112Z,56.54
2019-06-08T17:07:22.737Z,56.30
2019-06-08T17:09:51.780Z,56.01
2019-06-08T17:12:20.629Z,55.67
2019-06-08T17:14:49.682Z,55.64
2019-06-08T17:17:18.706Z,55.80
2019-06-08T17:19:49.045Z,55.61
2019-06-08T17:22:18.756Z,55.11
2019-06-08T17:24:47.692Z,55.12
2019-06-08T17:27:26.388Z,54.88
2019-06-08T17:29:45.957Z,53.94
2019-06-08T17:32:14.939Z,53.94
2019-06-08T17:34:44.320Z,53.91
2019-06-08T17:37:13.216Z,53.49
2019-06-08T17:39:42.591Z,53.19
2019-06-08T17:42:11.089Z,53.48
2019-06-08T17:44:40.910Z,53.94
2019-06-08T17:47:11.113Z,53.24
2019-06-08T17:49:41.308Z,54.27
2019-06-08T17:52:10.258Z,53.46
2019-06-08T17:54:39.230Z,53.68
2019-06-08T17:57:09.849Z,53.23
2019-06-08T17:59:39.469Z,53.14
2019-06-08T18:02:12.089Z,52.99
2019-06-08T18:04:39.563Z,52.27
2019-06-08T18:07:07.458Z,52.84
2019-06-08T18:09:38.899Z,53.09
2019-06-08T18:12:07.513Z,52.78
2019-06-08T18:14:39.027Z,51.82
2019-06-08T18:17:05.095Z,51.82
2019-06-08T18:19:34.822Z,52.04
2019-06-08T18:22:06.500Z,51.25
2019-06-08T18:24:34.506Z,51.48
2019-06-08T18:27:02.947Z,51.70
2019-06-08T18:29:31.954Z,51.15
2019-06-08T18:32:00.776Z,51.24
2019-06-08T18:34:29.734Z,51.54
2019-06-08T18:36:58.635Z,50.71
2019-06-08T18:39:28.185Z,50.73
2019-06-08T18:41:58.980Z,50.63
2019-06-08T18:44:28.728Z,50.75
2019-06-08T18:46:58.837Z,50.40
2019-06-08T18:49:28.960Z,50.12
2019-06-08T18:51:58.192Z,50.54
2019-06-08T18:54:27.838Z,51.00
2019-06-08T18:56:56.868Z,50.29
2019-06-08T18:59:28.585Z,50.34
2019-06-08T19:01:57.564Z,51.11
2019-06-08T19:04:30.486Z,50.74
2019-06-08T19:06:56.150Z,51.16
2019-06-08T19:09:25.082Z,51.13
2019-06-08T19:11:54.006Z,51.40
2019-06-08T19:14:22.900Z,51.22
2019-06-08T19:16:54.812Z,51.91
2019-06-08T19:19:20.701Z,52.50
2019-06-08T19:21:51.291Z,52.22
2019-06-08T19:24:20.965Z,52.21
2019-06-08T19:26:50.044Z,52.02
2019-06-08T19:29:19.929Z,52.62
2019-06-08T19:31:51.196Z,53.31
2019-06-08T19:34:18.816Z,53.46
2019-06-08T19:36:52.151Z,54.03
2019-06-08T19:39:17.894Z,53.86
2019-06-08T19:41:50.412Z,54.07
2019-06-08T19:44:18.156Z,54.25
2019-06-08T19:46:47.586Z,54.60
2019-06-08T19:49:17.290Z,54.00
2019-06-08T19:51:48.548Z,54.46
2019-06-08T19:54:18.247Z,54.56
2019-06-08T19:56:52.509Z,54.57
2019-06-08T19:59:14.819Z,54.56
2019-06-08T20:01:43.785Z,54.79
2019-06-08T20:04:12.640Z,54.46
2019-06-08T20:06:42.812Z,54.86
2019-06-08T20:09:11.228Z,55.11
2019-06-08T20:11:44.258Z,55.24
2019-06-08T20:14:11.058Z,55.59
2019-06-08T20:16:42.649Z,55.74
2019-06-08T20:19:11.249Z,55.59
2019-06-08T20:21:40.965Z,55.91
2019-06-08T20:24:10.393Z,55.88
2019-06-08T20:26:39.683Z,55.98
2019-06-08T20:29:13.621Z,56.26
2019-06-08T20:31:39.086Z,56.12
2019-06-08T20:34:08.649Z,56.35
2019-06-08T20:36:37.678Z,56.41
2019-06-08T20:39:08.188Z,56.74
2019-06-08T20:41:37.722Z,56.49
2019-06-08T20:44:08.470Z,56.95
2019-06-08T20:46:37.630Z,56.86
2019-06-08T20:49:04.377Z,57.34
2019-06-08T20:51:33.354Z,57.39
2019-06-08T20:54:02.786Z,57.68
2019-06-08T20:56:31.648Z,57.81
2019-06-08T20:59:02.946Z,57.71
2019-06-08T21:01:31.947Z,58.06
2019-06-08T21:04:01.043Z,58.05
2019-06-08T21:06:30.058Z,58.31
2019-06-08T21:09:00.017Z,58.45
2019-06-08T21:11:28.993Z,58.58
2019-06-08T21:13:57.948Z,59.04
2019-06-08T21:16:27.655Z,58.69
2019-06-08T21:18:57.765Z,58.64
2019-06-08T21:21:24.803Z,58.87
2019-06-08T21:23:55.623Z,59.29
2019-06-08T21:26:22.804Z,59.45
2019-06-08T21:28:54.129Z,59.29
2019-06-08T21:31:20.883Z,59.75
2019-06-08T21:33:52.131Z,59.65
2019-06-08T21:36:18.684Z,60.02
2019-06-08T21:38:50.412Z,60.30
2019-06-08T21:41:17.209Z,60.61
2019-06-08T21:43:45.590Z,60.99
2019-06-08T21:46:14.424Z,61.15
2019-06-08T21:48:43.766Z,61.30
2019-06-08T21:51:14.846Z,61.13
2019-06-08T21:53:46.991Z,61.65
2019-06-08T21:56:14.071Z,61.54
2019-06-08T21:58:43.223Z,62.03
2019-06-08T22:01:13.099Z,62.44
2019-06-08T22:03:42.027Z,62.35
2019-06-08T22:06:10.877Z,62.25
2019-06-08T22:08:39.747Z,62.53
2019-06-08T22:11:09.218Z,62.67
2019-06-08T22:13:37.629Z,62.79
2019-06-08T22:16:08.054Z,62.93
2019-06-08T22:18:37.834Z,63.06
2019-06-08T22:21:04.550Z,63.03
2019-06-08T22:23:34.895Z,63.15
2019-06-08T22:26:03.814Z,63.31
2019-06-08T22:28:33.727Z,63.26
2019-06-08T22:31:03.840Z,63.29
2019-06-08T22:33:32.489Z,63.71
2019-06-08T22:36:01.528Z,63.85
2019-06-08T22:38:30.465Z,64.27
2019-06-08T22:41:00.690Z,64.01
2019-06-08T22:43:28.439Z,64.04
2019-06-08T22:45:59.932Z,64.19
2019-06-08T22:48:27.697Z,64.22
2019-06-08T22:50:59.543Z,64.46
2019-06-08T22:53:27.612Z,64.69
2019-06-08T22:55:55.328Z,64.51
2019-06-08T22:58:27.637Z,64.55
2019-06-08T23:00:57.023Z,64.59
2019-06-08T23:03:24.437Z,64.62
2019-06-08T23:05:54.812Z,64.36
2019-06-08T23:08:22.398Z,64.62
2019-06-08T23:10:51.377Z,64.88
2019-06-08T23:13:20.289Z,65.16
2019-06-08T23:15:49.239Z,65.37
2019-06-08T23:18:18.248Z,65.31
2019-06-08T23:20:48.127Z,65.55
2019-06-08T23:23:17.844Z,66.12
2019-06-08T23:25:47.904Z,65.29
2019-06-08T23:28:14.981Z,66.09
2019-06-08T23:30:43.931Z,66.22
2019-06-08T23:33:13.712Z,66.47
2019-06-08T23:36:08.267Z,66.47
2019-06-08T23:38:11.507Z,66.75
2019-06-08T23:40:40.602Z,66.77
2019-06-08T23:43:12.074Z,66.88
2019-06-08T23:45:41.027Z,67.08
2019-06-08T23:48:09.921Z,67.29
2019-06-08T23:50:38.856Z,67.35
2019-06-08T23:53:10.758Z,67.29
2019-06-08T23:55:37.346Z,67.59
2019-06-08T23:58:09.550Z,67.81
